Time;durP1;ratioP1;P1;durP2;ratioP2;P2;SDS_P1;SDS_P2;PMS_P1;PMS_P2;Temp;Humidity;BMP_temperature;BMP_pressure;BME280_temperature;BME280_humidity;BME280_pressure;Samples;Min_cycle;Max_cycle;Signal;HPM_P1;HPM_P2
2021/05/25 00:00:31;;;;;;;5.00;3.20;;;10.80;99.90;;;;;;4727600;30;20051;-80
2021/05/25 00:02:58;;;;;;;6.70;3.47;;;10.80;99.90;;;;;;4743423;30;20032;-80
2021/05/25 00:05:30;;;;;;;5.75;3.30;;;10.90;99.90;;;;;;4726957;30;20048;-80
2021/05/25 00:07:57;;;;;;;5.97;4.05;;;10.80;99.90;;;;;;4723942;30;20128;-79
2021/05/25 00:10:29;;;;;;;6.00;4.55;;;10.80;99.90;;;;;;4728672;30;21410;-79
2021/05/25 00:13:03;;;;;;;5.13;4.18;;;10.80;99.90;;;;;;4732653;30;20059;-80
2021/05/25 00:15:33;;;;;;;10.15;5.47;;;10.80;99.90;;;;;;4728176;30;20063;-80
2021/05/25 00:18:00;;;;;;;8.38;5.13;;;10.80;99.90;;;;;;4743183;30;20056;-80
2021/05/25 00:20:27;;;;;;;7.80;6.15;;;10.80;99.90;;;;;;4745884;30;20060;-80
2021/05/25 00:22:54;;;;;;;9.40;7.15;;;10.80;99.90;;;;;;4732528;30;20059;-79
2021/05/25 00:25:22;;;;;;;9.20;6.45;;;10.80;99.90;;;;;;4745501;30;20409;-79
2021/05/25 00:27:54;;;;;;;8.73;7.43;;;10.70;99.90;;;;;;4725938;30;20416;-80
2021/05/25 00:30:21;;;;;;;11.60;6.82;;;10.70;99.90;;;;;;4732192;30;20142;-80
2021/05/25 00:32:48;;;;;;;7.80;6.28;;;10.70;99.90;;;;;;4706858;30;20061;-80
2021/05/25 00:35:15;;;;;;;6.50;5.22;;;10.70;99.90;;;;;;4730185;30;20048;-85
2021/05/25 00:37:42;;;;;;;7.32;6.05;;;10.70;99.90;;;;;;4722417;30;20048;-82
2021/05/25 00:40:12;;;;;;;6.95;5.75;;;10.70;99.90;;;;;;4715742;30;20044;-80
2021/05/25 00:42:39;;;;;;;9.02;5.90;;;10.70;99.90;;;;;;4716151;30;20043;-80
2021/05/25 00:45:08;;;;;;;7.80;5.65;;;10.70;99.90;;;;;;4741173;30;20052;-80
2021/05/25 00:47:36;;;;;;;9.73;6.45;;;10.70;99.90;;;;;;4744962;30;20479;-80
2021/05/25 00:50:11;;;;;;;8.52;6.47;;;10.60;99.90;;;;;;4716586;30;20048;-79
2021/05/25 00:52:43;;;;;;;9.77;6.10;;;10.60;99.90;;;;;;4701580;30;20051;-79
2021/05/25 00:55:20;;;;;;;8.00;6.30;;;10.60;99.90;;;;;;4729802;30;20047;-79
2021/05/25 00:57:48;;;;;;;8.27;5.38;;;10.60;99.90;;;;;;4744015;30;20489;-79
2021/05/25 01:00:17;;;;;;;6.93;5.78;;;10.60;99.90;;;;;;4745940;30;20048;-78
2021/05/25 01:02:44;;;;;;;10.32;6.53;;;10.60;99.90;;;;;;4744652;30;20032;-78
2021/05/25 01:05:13;;;;;;;8.57;6.13;;;10.60;99.90;;;;;;4705219;30;20075;-81
2021/05/25 01:07:41;;;;;;;8.05;5.90;;;10.60;99.90;;;;;;4739717;30;20043;-80
2021/05/25 01:10:09;;;;;;;11.10;7.78;;;10.60;99.90;;;;;;4730975;30;20051;-81
2021/05/25 01:12:45;;;;;;;9.15;7.00;;;10.60;99.90;;;;;;4731688;30;20059;-81
2021/05/25 01:15:13;;;;;;;6.22;5.32;;;10.60;99.90;;;;;;4732224;30;20056;-81
2021/05/25 01:17:39;;;;;;;9.45;5.55;;;10.60;99.90;;;;;;4746236;30;20040;-81
2021/05/25 01:20:07;;;;;;;7.63;4.75;;;10.60;99.90;;;;;;4707732;30;20075;-81
2021/05/25 01:22:34;;;;;;;6.57;5.40;;;10.60;99.90;;;;;;4731316;30;20048;-80
2021/05/25 01:25:07;;;;;;;6.80;4.80;;;10.60;99.90;;;;;;4730728;30;20044;-81
2021/05/25 01:27:33;;;;;;;9.32;4.95;;;10.50;99.90;;;;;;4746025;30;20047;-81
2021/05/25 01:30:00;;;;;;;6.43;4.80;;;10.60;99.90;;;;;;4745963;30;20060;-80
2021/05/25 01:32:26;;;;;;;3.83;3.10;;;10.50;99.90;;;;;;4725870;30;20409;-81
2021/05/25 01:34:53;;;;;;;6.80;4.45;;;10.50;99.90;;;;;;4716983;30;20519;-81
2021/05/25 01:37:22;;;;;;;6.78;3.90;;;10.50;99.90;;;;;;4746431;30;20059;-81
2021/05/25 01:39:54;;;;;;;5.88;3.47;;;10.50;99.90;;;;;;4730941;30;20056;-80
2021/05/25 01:42:21;;;;;;;6.03;3.63;;;10.50;99.90;;;;;;4723080;30;20048;-80
2021/05/25 01:44:48;;;;;;;5.85;3.15;;;10.40;99.90;;;;;;4715445;30;20059;-81
2021/05/25 01:47:18;;;;;;;5.10;3.08;;;10.40;99.90;;;;;;4706478;30;20060;-82
2021/05/25 01:49:44;;;;;;;5.45;3.42;;;10.30;99.90;;;;;;4744162;30;20067;-81
2021/05/25 01:52:12;;;;;;;4.38;3.03;;;10.20;99.90;;;;;;4743827;30;20579;-79
2021/05/25 01:54:38;;;;;;;4.90;3.30;;;10.20;99.90;;;;;;4743564;30;20064;-80
2021/05/25 01:57:05;;;;;;;10.48;3.78;;;10.20;99.90;;;;;;4743509;30;20048;-80
2021/05/25 01:59:31;;;;;;;5.88;3.55;;;10.20;99.90;;;;;;4730726;30;20083;-79
2021/05/25 02:01:58;;;;;;;5.65;3.10;;;10.20;99.90;;;;;;4717406;30;20040;-80
2021/05/25 02:04:24;;;;;;;5.53;2.65;;;10.10;99.90;;;;;;4728271;30;20592;-80
2021/05/25 02:06:53;;;;;;;4.95;2.20;;;10.10;99.90;;;;;;4725870;30;20056;-80
2021/05/25 02:09:20;;;;;;;6.47;2.08;;;10.10;99.90;;;;;;4727548;30;20389;-80
2021/05/25 02:11:46;;;;;;;3.72;2.03;;;10.00;99.90;;;;;;4717646;30;20527;-80
2021/05/25 02:14:13;;;;;;;3.20;1.48;;;10.00;99.90;;;;;;4729706;30;20059;-80
2021/05/25 02:16:39;;;;;;;5.40;1.48;;;10.00;99.90;;;;;;4741968;30;20055;-79
2021/05/25 02:19:06;;;;;;;3.47;1.40;;;10.00;99.90;;;;;;4728252;30;20059;-80
2021/05/25 02:21:33;;;;;;;4.10;1.42;;;10.00;99.90;;;;;;4715796;30;20535;-80
2021/05/25 02:23:59;;;;;;;2.95;1.38;;;10.00;99.90;;;;;;4741456;30;20524;-80
2021/05/25 02:26:26;;;;;;;2.38;1.17;;;10.00;99.90;;;;;;4742645;30;20082;-80
2021/05/25 02:28:52;;;;;;;4.40;1.38;;;10.00;99.90;;;;;;4727478;30;20052;-80
2021/05/25 02:31:19;;;;;;;4.97;1.38;;;9.90;99.90;;;;;;4743998;30;20047;-81
2021/05/25 02:33:45;;;;;;;3.58;1.27;;;9.90;99.90;;;;;;4704688;30;20048;-80
2021/05/25 02:36:12;;;;;;;3.00;1.13;;;9.80;99.90;;;;;;4707229;30;20505;-80
2021/05/25 02:38:39;;;;;;;3.53;1.17;;;9.70;99.90;;;;;;4701815;30;20037;-82
2021/05/25 02:41:05;;;;;;;3.20;1.38;;;9.70;99.90;;;;;;4720899;30;20485;-83
2021/05/25 02:43:32;;;;;;;4.03;1.10;;;9.60;99.90;;;;;;4733758;30;20442;-79
2021/05/25 02:45:59;;;;;;;3.97;1.98;;;9.50;99.90;;;;;;4725999;30;20056;-81
2021/05/25 02:48:26;;;;;;;6.57;3.00;;;9.50;99.90;;;;;;4725544;30;20044;-80
2021/05/25 02:50:53;;;;;;;8.23;4.38;;;9.50;99.90;;;;;;4714093;30;20058;-80
2021/05/25 02:53:20;;;;;;;10.25;4.25;;;9.50;99.90;;;;;;4727425;30;20052;-81
2021/05/25 02:55:47;;;;;;;7.35;4.32;;;9.50;99.90;;;;;;4725852;30;20090;-81
2021/05/25 02:58:14;;;;;;;7.40;3.95;;;9.50;99.90;;;;;;4727177;30;20639;-81
2021/05/25 03:00:43;;;;;;;6.78;2.10;;;9.50;99.90;;;;;;4712635;30;20044;-81
2021/05/25 03:03:11;;;;;;;3.97;1.95;;;9.50;99.90;;;;;;4727342;30;20456;-80
2021/05/25 03:05:39;;;;;;;4.95;1.60;;;9.50;99.90;;;;;;4738186;30;20056;-81
2021/05/25 03:08:07;;;;;;;3.70;1.30;;;9.40;99.90;;;;;;4743104;30;20048;-81
2021/05/25 03:10:36;;;;;;;3.95;1.17;;;9.40;99.90;;;;;;4743181;30;20524;-81
2021/05/25 03:13:03;;;;;;;4.90;1.25;;;9.40;99.90;;;;;;4743016;30;20040;-80
2021/05/25 03:15:33;;;;;;;4.72;1.58;;;9.30;99.90;;;;;;4725234;30;20048;-80
2021/05/25 03:18:00;;;;;;;4.22;1.50;;;9.30;99.90;;;;;;4727893;30;20048;-81
2021/05/25 03:20:27;;;;;;;3.60;1.23;;;9.30;99.90;;;;;;4716304;30;20047;-81
2021/05/25 03:22:54;;;;;;;3.85;1.50;;;9.20;99.90;;;;;;4745035;30;20044;-80
2021/05/25 03:25:21;;;;;;;4.00;1.42;;;9.20;99.90;;;;;;4740577;30;20048;-80
2021/05/25 03:27:48;;;;;;;4.50;1.30;;;9.20;99.90;;;;;;4711770;30;20056;-80
2021/05/25 03:30:17;;;;;;;3.10;1.23;;;9.20;99.90;;;;;;4718579;30;20528;-81
2021/05/25 03:32:45;;;;;;;4.40;1.73;;;9.10;99.90;;;;;;4744647;30;20508;-81
2021/05/25 03:35:14;;;;;;;4.30;1.40;;;9.10;99.90;;;;;;4733261;30;20056;-81
2021/05/25 03:37:41;;;;;;;3.10;1.13;;;9.10;99.90;;;;;;4722792;30;20040;-81
2021/05/25 03:40:09;;;;;;;7.50;1.95;;;9.10;99.90;;;;;;4727573;30;20048;-81
2021/05/25 03:42:36;;;;;;;4.53;1.77;;;9.10;99.90;;;;;;4743115;30;20040;-80
2021/05/25 03:45:04;;;;;;;3.63;1.20;;;9.10;99.90;;;;;;4721140;30;20138;-81
2021/05/25 03:47:31;;;;;;;4.15;1.20;;;9.10;99.90;;;;;;4732461;30;20057;-81
2021/05/25 03:50:06;;;;;;;3.58;1.50;;;9.10;99.90;;;;;;4744736;30;20087;-80
2021/05/25 03:52:39;;;;;;;3.28;1.02;;;9.10;99.90;;;;;;4707756;30;20055;-81
2021/05/25 04:00:47;;;;;;;2.83;1.15;;;9.20;99.90;;;;;;4745814;30;20133;-81
2021/05/25 04:03:14;;;;;;;4.63;1.42;;;9.20;99.90;;;;;;4732530;30;20048;-83
2021/05/25 04:05:40;;;;;;;7.93;1.70;;;9.30;99.90;;;;;;4725625;30;20409;-82
2021/05/25 04:08:09;;;;;;;7.45;2.33;;;9.30;99.90;;;;;;4733239;30;20060;-81
2021/05/25 04:10:36;;;;;;;5.32;2.33;;;9.30;99.90;;;;;;4723515;30;20058;-80
2021/05/25 04:13:02;;;;;;;4.00;1.95;;;9.30;99.90;;;;;;4716418;30;20055;-80
2021/05/25 04:15:29;;;;;;;4.40;1.75;;;9.30;99.90;;;;;;4743053;30;20071;-81
2021/05/25 04:17:56;;;;;;;7.10;3.40;;;9.30;99.90;;;;;;4734119;30;20048;-81
2021/05/25 04:20:24;;;;;;;5.40;2.45;;;9.40;99.90;;;;;;4743826;30;20036;-81
2021/05/25 04:22:50;;;;;;;6.00;3.25;;;9.40;99.90;;;;;;4729524;30;20036;-81
2021/05/25 04:25:17;;;;;;;8.55;3.13;;;9.40;99.90;;;;;;4703781;30;20048;-81
2021/05/25 04:27:43;;;;;;;3.80;1.98;;;9.50;99.90;;;;;;4720928;30;20048;-79
2021/05/25 04:30:12;;;;;;;5.18;2.65;;;9.40;99.90;;;;;;4733160;30;20048;-81
2021/05/25 04:32:38;;;;;;;4.35;2.13;;;9.50;99.90;;;;;;4720339;30;20035;-81
2021/05/25 04:35:06;;;;;;;6.00;2.38;;;9.60;99.90;;;;;;4728448;30;20055;-81
2021/05/25 04:37:32;;;;;;;4.63;2.33;;;9.60;99.90;;;;;;4745499;30;20548;-80
2021/05/25 04:40:00;;;;;;;3.83;1.80;;;9.60;99.90;;;;;;4743785;30;20043;-80
2021/05/25 04:42:26;;;;;;;4.25;1.88;;;9.60;99.90;;;;;;4730151;30;20068;-81
2021/05/25 04:44:53;;;;;;;4.25;2.05;;;9.60;99.90;;;;;;4699711;30;20469;-80
2021/05/25 04:47:20;;;;;;;5.97;2.85;;;9.70;99.90;;;;;;4744206;30;20576;-80
2021/05/25 04:49:47;;;;;;;3.97;2.78;;;9.70;99.90;;;;;;4746084;30;20059;-80
2021/05/25 04:52:13;;;;;;;7.10;2.70;;;9.70;99.90;;;;;;4704749;30;20044;-81
2021/05/25 04:54:40;;;;;;;6.18;2.85;;;9.70;99.90;;;;;;4716055;30;20048;-81
2021/05/25 04:57:06;;;;;;;6.47;3.65;;;9.70;99.90;;;;;;4745737;30;20056;-80
2021/05/25 04:59:33;;;;;;;6.32;3.03;;;9.80;99.90;;;;;;4732079;30;20048;-80
2021/05/25 05:01:59;;;;;;;6.05;3.85;;;9.80;99.90;;;;;;4732482;30;20576;-81
2021/05/25 05:04:26;;;;;;;5.10;3.72;;;9.90;99.90;;;;;;4745626;30;20040;-80
2021/05/25 05:06:52;;;;;;;6.93;3.80;;;9.90;99.90;;;;;;4733502;30;20044;-80
2021/05/25 05:09:19;;;;;;;6.45;3.70;;;9.90;99.90;;;;;;4734816;30;20072;-80
2021/05/25 05:11:45;;;;;;;5.72;3.53;;;9.90;99.90;;;;;;4718694;30;20043;-79
2021/05/25 05:14:12;;;;;;;7.13;3.63;;;9.90;99.90;;;;;;4741924;30;20054;-79
2021/05/25 05:16:38;;;;;;;5.50;3.47;;;10.00;99.90;;;;;;4721041;30;20048;-79
2021/05/25 05:19:05;;;;;;;5.03;3.58;;;10.00;99.90;;;;;;4730241;30;20048;-79
2021/05/25 05:21:32;;;;;;;4.10;3.30;;;10.00;99.90;;;;;;4746966;30;20051;-79
2021/05/25 05:23:58;;;;;;;6.22;3.50;;;10.10;99.90;;;;;;4748976;30;20036;-80
2021/05/25 05:26:28;;;;;;;6.30;3.33;;;10.00;99.90;;;;;;4742736;30;20040;-80
2021/05/25 05:28:54;;;;;;;5.88;4.72;;;10.10;99.90;;;;;;4744208;30;20071;-80
2021/05/25 05:31:21;;;;;;;5.22;3.33;;;10.10;99.90;;;;;;4715050;30;20055;-80
2021/05/25 05:33:48;;;;;;;5.40;3.78;;;10.10;99.90;;;;;;4715186;30;20054;-80
2021/05/25 05:36:16;;;;;;;9.18;4.60;;;10.20;99.90;;;;;;4727343;30;20048;-81
2021/05/25 05:38:46;;;;;;;5.40;4.35;;;10.20;99.90;;;;;;4714213;30;20072;-80
2021/05/25 05:41:14;;;;;;;4.38;3.80;;;10.30;99.90;;;;;;4700427;30;20052;-80
2021/05/25 05:43:41;;;;;;;6.07;4.03;;;10.30;99.90;;;;;;4742620;30;20064;-80
2021/05/25 05:46:08;;;;;;;6.45;3.28;;;10.40;99.90;;;;;;4726138;30;20044;-80
2021/05/25 05:48:35;;;;;;;6.22;3.67;;;10.40;99.90;;;;;;4731953;30;20052;-80
2021/05/25 05:51:02;;;;;;;9.60;4.30;;;10.50;99.90;;;;;;4729138;30;20055;-80
2021/05/25 05:53:28;;;;;;;5.70;3.63;;;10.50;99.90;;;;;;4743316;30;20048;-80
2021/05/25 05:55:55;;;;;;;4.25;3.53;;;10.60;99.90;;;;;;4727615;30;20072;-80
2021/05/25 05:58:21;;;;;;;4.75;4.25;;;10.60;99.90;;;;;;4742385;30;20039;-80
2021/05/25 06:00:48;;;;;;;6.45;4.47;;;10.70;99.90;;;;;;4731006;30;20052;-80
2021/05/25 06:03:14;;;;;;;6.35;5.32;;;10.70;99.90;;;;;;4743127;30;20508;-80
2021/05/25 06:05:41;;;;;;;6.10;4.82;;;10.80;99.90;;;;;;4741478;30;20543;-80
2021/05/25 06:08:09;;;;;;;6.88;5.65;;;10.80;99.90;;;;;;4728344;30;20085;-79
2021/05/25 06:10:40;;;;;;;6.22;5.18;;;10.80;99.80;;;;;;4744291;30;20047;-79
2021/05/25 06:13:07;;;;;;;6.57;4.70;;;10.80;99.80;;;;;;4743045;30;20615;-80
2021/05/25 06:15:34;;;;;;;9.02;5.88;;;10.90;99.70;;;;;;4730427;30;20442;-77
2021/05/25 06:18:00;;;;;;;5.53;5.03;;;10.90;99.50;;;;;;4740690;30;20394;-77
2021/05/25 06:20:27;;;;;;;7.55;5.07;;;10.90;99.50;;;;;;4743844;30;20033;-79
2021/05/25 06:22:54;;;;;;;8.10;5.22;;;11.00;99.50;;;;;;4733118;30;20497;-79
2021/05/25 06:25:22;;;;;;;5.15;4.65;;;11.00;99.40;;;;;;4726441;30;20048;-79
2021/05/25 06:27:49;;;;;;;7.63;5.60;;;11.00;99.30;;;;;;4744202;30;20473;-79
2021/05/25 06:30:16;;;;;;;7.80;5.95;;;11.00;99.20;;;;;;4714519;30;20040;-79
2021/05/25 06:32:43;;;;;;;6.63;5.65;;;11.00;99.00;;;;;;4728218;30;20128;-79
2021/05/25 06:35:10;;;;;;;5.22;4.72;;;11.00;98.90;;;;;;4742412;30;20068;-79
2021/05/25 06:37:37;;;;;;;6.82;5.30;;;11.00;98.80;;;;;;4741351;30;20052;-80
2021/05/25 06:40:05;;;;;;;5.32;4.82;;;11.00;98.80;;;;;;4743349;30;20051;-79
2021/05/25 06:42:31;;;;;;;5.90;4.60;;;11.00;98.70;;;;;;4726627;30;20962;-79
2021/05/25 06:44:58;;;;;;;6.80;4.00;;;11.10;98.70;;;;;;4724675;30;20441;-79
2021/05/25 06:47:24;;;;;;;7.03;5.70;;;11.10;98.80;;;;;;4742460;30;20047;-79
2021/05/25 06:49:51;;;;;;;7.47;5.97;;;11.10;98.60;;;;;;4740617;30;20505;-79
2021/05/25 06:52:18;;;;;;;6.18;4.20;;;11.20;98.50;;;;;;4727514;30;20064;-79
2021/05/25 06:54:44;;;;;;;4.75;4.25;;;11.30;98.60;;;;;;4680980;30;20044;-79
2021/05/25 06:57:11;;;;;;;5.28;4.78;;;11.50;98.70;;;;;;4715600;30;20056;-79
2021/05/25 06:59:38;;;;;;;6.05;5.45;;;11.60;98.50;;;;;;4730935;30;20051;-79
2021/05/25 07:02:05;;;;;;;7.18;5.63;;;11.60;98.30;;;;;;4742056;30;20052;-79
2021/05/25 07:04:31;;;;;;;6.55;5.95;;;11.70;98.10;;;;;;4710638;30;20045;-79
2021/05/25 07:06:58;;;;;;;5.43;4.88;;;11.70;98.00;;;;;;4737926;30;20044;-79
2021/05/25 07:09:24;;;;;;;6.22;5.25;;;11.60;98.00;;;;;;4743256;30;20048;-79
2021/05/25 07:11:51;;;;;;;7.57;6.05;;;11.60;98.00;;;;;;4714886;30;20051;-79
2021/05/25 07:14:18;;;;;;;5.57;5.10;;;11.60;98.10;;;;;;4711248;30;20051;-79
2021/05/25 07:16:44;;;;;;;6.82;6.22;;;11.80;98.20;;;;;;4739540;30;20071;-79
2021/05/25 07:19:10;;;;;;;6.15;5.60;;;11.90;98.00;;;;;;4726574;30;20055;-80
2021/05/25 07:21:37;;;;;;;5.97;5.38;;;12.00;97.90;;;;;;4714577;30;20049;-79
2021/05/25 07:24:04;;;;;;;7.40;5.53;;;12.20;97.80;;;;;;4712217;30;20048;-79
2021/05/25 07:26:30;;;;;;;6.63;5.68;;;12.40;97.70;;;;;;4714856;30;20056;-81
2021/05/25 07:28:57;;;;;;;7.25;6.20;;;12.60;97.60;;;;;;4729300;30;20048;-81
2021/05/25 07:31:23;;;;;;;5.82;5.13;;;12.90;97.20;;;;;;4728770;30;20060;-81
2021/05/25 07:33:50;;;;;;;6.53;5.93;;;13.10;96.80;;;;;;4687562;30;20059;-80
2021/05/25 07:36:16;;;;;;;7.10;6.38;;;13.20;96.60;;;;;;4742566;30;20408;-79
2021/05/25 07:38:45;;;;;;;7.63;5.78;;;13.10;96.40;;;;;;4716530;30;20052;-80
2021/05/25 07:41:12;;;;;;;9.50;6.93;;;13.10;96.40;;;;;;4715880;30;20048;-79
2021/05/25 07:43:39;;;;;;;6.57;5.90;;;12.90;96.30;;;;;;4745210;30;20047;-79
2021/05/25 07:46:05;;;;;;;6.38;5.70;;;12.90;96.50;;;;;;4713124;30;20492;-79
2021/05/25 07:48:32;;;;;;;7.75;6.97;;;12.90;96.40;;;;;;4730163;30;20047;-80
2021/05/25 07:50:59;;;;;;;7.60;6.75;;;12.90;96.20;;;;;;4731767;30;20453;-80
2021/05/25 07:53:25;;;;;;;7.07;6.45;;;12.90;96.30;;;;;;4728947;30;20523;-80
2021/05/25 07:55:52;;;;;;;7.95;6.35;;;13.00;96.40;;;;;;4742969;30;20499;-80
2021/05/25 07:58:18;;;;;;;6.70;5.80;;;13.00;96.00;;;;;;4741609;30;20044;-80
2021/05/25 08:00:48;;;;;;;7.43;6.25;;;13.10;96.00;;;;;;4729090;30;20044;-80
2021/05/25 08:03:16;;;;;;;5.68;4.63;;;13.20;96.10;;;;;;4731206;30;20041;-80
2021/05/25 08:05:43;;;;;;;7.38;6.22;;;13.20;95.90;;;;;;4744385;30;20043;-80
2021/05/25 08:08:09;;;;;;;6.30;5.28;;;13.40;96.00;;;;;;4745789;30;20071;-79
2021/05/25 08:10:37;;;;;;;6.40;4.50;;;13.50;95.60;;;;;;4742900;30;20132;-80
2021/05/25 08:13:04;;;;;;;6.88;5.28;;;13.60;95.50;;;;;;4729722;30;20040;-79
2021/05/25 08:15:33;;;;;;;5.97;4.72;;;13.70;95.20;;;;;;4741939;30;20048;-80
2021/05/25 08:20:27;;;;;;;4.75;3.85;;;13.80;95.40;;;;;;4730776;30;20054;-80
2021/05/25 08:22:57;;;;;;;5.53;4.53;;;13.90;95.10;;;;;;4701877;30;20051;-80
2021/05/25 08:25:27;;;;;;;6.32;3.47;;;14.00;95.20;;;;;;4712969;30;20059;-80
2021/05/25 08:27:54;;;;;;;4.53;3.67;;;14.20;94.80;;;;;;4715596;30;20527;-80
2021/05/25 08:30:23;;;;;;;6.40;4.70;;;14.30;94.50;;;;;;4743419;30;20469;-80
2021/05/25 08:32:51;;;;;;;4.00;2.70;;;14.30;94.10;;;;;;4728707;30;20409;-80
2021/05/25 08:35:18;;;;;;;3.40;2.75;;;14.30;94.20;;;;;;4730407;30;20051;-80
2021/05/25 08:37:59;;;;;;;4.28;2.95;;;14.40;94.40;;;;;;4712154;30;20052;-80
2021/05/25 08:40:28;;;;;;;5.10;2.90;;;14.60;93.80;;;;;;4743452;30;20040;-80
2021/05/25 08:42:55;;;;;;;3.33;2.47;;;14.90;93.70;;;;;;4732740;30;20389;-80
2021/05/25 08:45:23;;;;;;;4.45;2.60;;;15.20;93.40;;;;;;4729131;30;20048;-80
2021/05/25 08:47:52;;;;;;;3.28;1.95;;;15.60;93.20;;;;;;4745689;30;20040;-79
2021/05/25 08:50:21;;;;;;;5.53;2.08;;;16.10;92.90;;;;;;4731486;30;20047;-78
2021/05/25 08:52:48;;;;;;;6.13;1.55;;;16.30;92.00;;;;;;4745145;30;20059;-78
2021/05/25 08:55:14;;;;;;;4.38;1.02;;;16.20;90.70;;;;;;4715648;30;20519;-79
2021/05/25 08:57:41;;;;;;;4.13;1.00;;;15.80;90.40;;;;;;4745393;30;20076;-79
2021/05/25 09:00:09;;;;;;;3.20;0.68;;;15.40;90.90;;;;;;4742311;30;20048;-80
2021/05/25 09:02:36;;;;;;;3.25;0.70;;;15.10;91.30;;;;;;4744482;30;20048;-80
2021/05/25 09:05:22;;;;;;;5.22;1.00;;;15.00;91.80;;;;;;4741896;30;20032;-80
2021/05/25 09:07:50;;;;;;;4.03;0.70;;;15.10;91.80;;;;;;4742504;30;20060;-80
2021/05/25 09:10:40;;;;;;;2.13;0.55;;;15.30;91.60;;;;;;4742819;30;20044;-80
2021/05/25 09:13:16;;;;;;;5.18;0.73;;;15.50;91.10;;;;;;4716191;30;20051;-80
2021/05/25 09:15:47;;;;;;;6.57;1.00;;;15.50;90.70;;;;;;4726199;30;20108;-80
2021/05/25 09:18:23;;;;;;;5.72;0.75;;;15.60;90.60;;;;;;4744503;30;20051;-80
2021/05/25 09:20:56;;;;;;;3.50;0.45;;;15.40;89.70;;;;;;4728860;30;20036;-81
2021/05/25 09:23:43;;;;;;;3.42;0.50;;;15.00;89.40;;;;;;4728518;30;20140;-81
2021/05/25 09:26:28;;;;;;;4.25;0.75;;;14.40;90.70;;;;;;4730543;30;20040;-79
2021/05/25 09:29:06;;;;;;;2.97;0.40;;;13.80;92.10;;;;;;4732553;30;20063;-79
2021/05/25 09:31:42;;;;;;;2.72;0.30;;;13.10;93.40;;;;;;4741922;30;20056;-79
2021/05/25 09:34:16;;;;;;;1.15;0.35;;;12.80;94.40;;;;;;4743877;30;20035;-79
2021/05/25 09:36:58;;;;;;;1.00;0.20;;;12.50;95.00;;;;;;4741368;30;20501;-79
2021/05/25 09:39:26;;;;;;;1.00;0.30;;;12.30;95.60;;;;;;4743013;30;20067;-79
2021/05/25 09:41:59;;;;;;;1.52;0.40;;;12.20;96.20;;;;;;4741396;30;20504;-79
2021/05/25 09:44:27;;;;;;;1.52;0.30;;;12.20;96.50;;;;;;4733496;30;20047;-79
2021/05/25 09:46:54;;;;;;;5.07;0.30;;;12.40;96.90;;;;;;4742386;30;20051;-79
2021/05/25 09:49:21;;;;;;;2.20;0.30;;;12.40;97.00;;;;;;4729280;30;20055;-79
2021/05/25 09:51:47;;;;;;;2.88;0.50;;;12.40;97.40;;;;;;4726311;30;20044;-79
2021/05/25 09:54:22;;;;;;;2.10;0.35;;;12.50;97.70;;;;;;4730570;30;20043;-80
2021/05/25 09:57:04;;;;;;;1.95;0.40;;;12.50;98.00;;;;;;4742053;30;20428;-79
2021/05/25 09:59:35;;;;;;;3.88;0.60;;;12.60;98.20;;;;;;4742516;30;20059;-79
2021/05/25 10:02:21;;;;;;;3.45;0.80;;;12.70;98.40;;;;;;4743005;30;20485;-79
2021/05/25 10:05:07;;;;;;;3.50;0.90;;;12.80;98.50;;;;;;4732750;30;20060;-79
2021/05/25 10:07:35;;;;;;;3.05;0.70;;;13.10;98.70;;;;;;4742981;30;20043;-79
2021/05/25 10:10:05;;;;;;;3.30;0.93;;;13.30;98.80;;;;;;4741937;30;20079;-79
2021/05/25 10:12:32;;;;;;;4.60;1.00;;;13.50;98.70;;;;;;4728384;30;20043;-79
2021/05/25 10:14:59;;;;;;;6.38;1.17;;;13.70;98.40;;;;;;4741790;30;20063;-79
2021/05/25 10:19:58;;;;;;;4.68;0.90;;;13.90;98.30;;;;;;4743108;30;20052;-79
2021/05/25 10:22:25;;;;;;;4.65;1.20;;;14.20;98.40;;;;;;4725891;30;20037;-79
2021/05/25 10:24:54;;;;;;;3.05;1.05;;;14.50;98.30;;;;;;4729694;30;21072;-79
2021/05/25 10:27:21;;;;;;;5.85;1.20;;;14.60;97.60;;;;;;4725803;30;20425;-80
2021/05/25 10:29:48;;;;;;;4.80;0.88;;;14.50;97.30;;;;;;4727389;30;20063;-80
2021/05/25 10:32:23;;;;;;;2.78;0.80;;;14.20;97.70;;;;;;4742369;30;20287;-79
2021/05/25 10:34:52;;;;;;;7.32;1.60;;;13.90;98.10;;;;;;4743193;30;20531;-79
2021/05/25 10:37:22;;;;;;;5.93;2.17;;;13.70;98.50;;;;;;4739956;30;20044;-80
2021/05/25 10:39:56;;;;;;;8.07;2.33;;;13.40;98.90;;;;;;4743894;30;20069;-80
2021/05/25 10:42:29;;;;;;;9.25;2.45;;;13.20;99.00;;;;;;4742204;30;20036;-79
2021/05/25 10:45:11;;;;;;;7.28;2.00;;;13.00;99.00;;;;;;4741268;30;20059;-82
2021/05/25 10:47:50;;;;;;;4.93;1.80;;;12.70;99.30;;;;;;4735121;30;20044;-82
2021/05/25 10:50:32;;;;;;;5.18;1.45;;;12.60;99.20;;;;;;4739023;30;20059;-81
2021/05/25 10:53:03;;;;;;;9.30;1.90;;;12.30;99.40;;;;;;4711647;30;20056;-81
2021/05/25 10:55:32;;;;;;;5.78;2.03;;;12.10;99.50;;;;;;4740566;30;20044;-81
2021/05/25 10:58:00;;;;;;;11.00;4.53;;;12.10;99.90;;;;;;4727548;30;20056;-81
2021/05/25 11:00:29;;;;;;;6.03;2.35;;;12.30;99.90;;;;;;4725737;30;20067;-80
2021/05/25 11:03:01;;;;;;;7.97;2.47;;;12.30;99.90;;;;;;4732188;30;20040;-79
2021/05/25 11:05:27;;;;;;;6.27;2.00;;;12.50;99.90;;;;;;4724186;30;20408;-81
2021/05/25 11:07:55;;;;;;;6.43;2.15;;;12.80;99.90;;;;;;4744150;30;20516;-79
2021/05/25 11:10:27;;;;;;;8.75;2.38;;;13.40;99.90;;;;;;4735458;30;20040;-82
2021/05/25 11:13:19;;;;;;;7.15;2.10;;;13.90;99.90;;;;;;4728764;30;20054;-81
2021/05/25 11:16:14;;;;;;;5.93;1.50;;;14.60;99.90;;;;;;4729129;30;20059;-81
2021/05/25 11:24:45;;;;;;;4.63;0.98;;;14.70;96.80;;;;;;4740087;30;20048;-78
2021/05/25 11:27:36;;;;;;;6.15;0.80;;;14.80;96.00;;;;;;4740158;30;20515;-79
2021/05/25 11:30:08;;;;;;;6.20;0.90;;;15.10;96.50;;;;;;4740649;30;20048;-80
2021/05/25 11:32:47;;;;;;;3.92;1.05;;;15.30;95.60;;;;;;4741892;30;20057;-81
2021/05/25 11:35:24;;;;;;;5.68;0.80;;;15.30;95.20;;;;;;4740515;30;20060;-78
2021/05/25 11:37:54;;;;;;;5.43;0.95;;;15.50;95.40;;;;;;4741929;30;20400;-80
2021/05/25 11:40:22;;;;;;;4.10;0.50;;;16.00;94.40;;;;;;4741694;30;20047;-81
2021/05/25 11:42:50;;;;;;;2.17;0.30;;;16.70;94.50;;;;;;4728785;30;20041;-80
2021/05/25 11:45:21;;;;;;;4.03;0.70;;;17.50;92.60;;;;;;4737699;30;20048;-78
2021/05/25 11:47:53;;;;;;;6.25;0.60;;;17.60;87.10;;;;;;4741119;30;20317;-78
2021/05/25 11:50:20;;;;;;;;;;;17.10;82.60;;;;;;4733711;30;20606;-79
2021/05/25 11:52:51;;;;;;;4.00;0.50;;;16.50;84.80;;;;;;4727568;30;19922;-79
2021/05/25 11:55:20;;;;;;;4.68;0.98;;;16.00;86.70;;;;;;4740382;30;20061;-79
2021/05/25 11:57:48;;;;;;;4.80;0.60;;;15.70;87.50;;;;;;4739363;30;20063;-78
2021/05/25 12:00:21;;;;;;;3.63;0.40;;;15.50;89.10;;;;;;4730565;30;20484;-79
2021/05/25 12:02:51;;;;;;;;;;;15.70;89.90;;;;;;4724453;30;20047;-79
2021/05/25 12:05:20;;;;;;;3.28;0.60;;;15.90;88.90;;;;;;4721498;30;19922;-79
2021/05/25 12:07:55;;;;;;;4.82;0.65;;;16.10;87.70;;;;;;4743042;30;20036;-79
2021/05/25 12:10:32;;;;;;;4.13;0.75;;;16.30;87.00;;;;;;4729267;30;20055;-79
2021/05/25 12:13:04;;;;;;;3.30;0.40;;;17.00;86.50;;;;;;4744013;30;20854;-80
2021/05/25 12:15:30;;;;;;;3.78;0.32;;;17.90;81.80;;;;;;4711508;30;20047;-80
2021/05/25 12:17:59;;;;;;;4.05;0.60;;;18.50;81.90;;;;;;4745767;30;20479;-83
2021/05/25 12:20:42;;;;;;;1.63;0.30;;;19.10;78.80;;;;;;4743943;30;20052;-82
2021/05/25 12:23:12;;;;;;;4.95;0.40;;;19.40;77.50;;;;;;4744229;30;20048;-82
2021/05/25 12:25:39;;;;;;;3.08;0.40;;;19.50;75.40;;;;;;4732438;30;20036;-82
2021/05/25 12:28:05;;;;;;;1.75;0.30;;;20.10;73.40;;;;;;4729531;30;20051;-80
2021/05/25 12:30:33;;;;;;;2.67;0.40;;;20.80;69.80;;;;;;4737154;30;20106;-81
2021/05/25 12:33:00;;;;;;;2.38;0.30;;;20.70;65.30;;;;;;4735148;30;20051;-82
2021/05/25 12:35:28;;;;;;;3.55;0.30;;;20.10;63.60;;;;;;4716100;30;20083;-83
2021/05/25 12:38:12;;;;;;;1.55;0.20;;;19.30;62.70;;;;;;4731813;30;20060;-82
2021/05/25 12:40:43;;;;;;;1.92;0.30;;;18.60;65.20;;;;;;4746857;30;20527;-82
2021/05/25 12:43:18;;;;;;;1.58;0.20;;;17.90;65.90;;;;;;4748083;30;20953;-81
2021/05/25 12:45:46;;;;;;;6.53;0.75;;;17.40;68.10;;;;;;4746001;30;20048;-81
2021/05/25 12:48:13;;;;;;;2.97;0.45;;;16.90;69.00;;;;;;4748466;30;20048;-81
2021/05/25 12:50:41;;;;;;;1.83;0.28;;;16.50;70.70;;;;;;4723252;30;20048;-81
2021/05/25 12:53:16;;;;;;;1.73;0.20;;;16.20;72.30;;;;;;4721996;30;20051;-81
2021/05/25 12:55:52;;;;;;;2.47;0.30;;;15.90;73.10;;;;;;4735510;30;20056;-81
2021/05/25 12:58:43;;;;;;;2.85;0.28;;;15.70;74.10;;;;;;4745731;30;20416;-81
2021/05/25 13:01:31;;;;;;;1.70;0.20;;;15.60;75.20;;;;;;4730273;30;20048;-81
2021/05/25 13:04:04;;;;;;;5.82;0.30;;;15.70;75.20;;;;;;4747312;30;20416;-81
2021/05/25 13:06:47;;;;;;;3.35;0.88;;;15.90;75.00;;;;;;4745200;30;20044;-81
2021/05/25 13:09:20;;;;;;;2.70;0.43;;;16.20;75.30;;;;;;4732944;30;20044;-81
2021/05/25 13:12:04;;;;;;;2.13;0.30;;;16.50;74.30;;;;;;4747837;30;20051;-81
2021/05/25 13:14:32;;;;;;;3.00;0.30;;;16.60;73.80;;;;;;4738661;30;20036;-81
2021/05/25 13:17:01;;;;;;;1.77;0.40;;;16.60;73.50;;;;;;4736954;30;20060;-80